Williamstown, Ohio
Current Conditions -  °F | °C
As of 4:53 AM on Thursday 29 Jan 2015 (Local Time) from KFDY Reporting Station
Overcast Overcast  
Wind Chill: 18°   Ceiling: 6000
Heat Index: 30°   Visibility: 10mi
Dew Point: 20°   Wind: 17mph
Humidity: 66%   Direction: 150°SSE
Pressure: 29.89"   Gusts: 25mph
Location:  40.83°N, 83.65°W
Report Text: KFDY 290953Z AUTO 15015G22KT 10SM OVC060 M01/M07 A2989 RMK AO2 SLP129 T10111067
Loading
Personal Weather Stations






























Interactive Weather Map New forecast layout! Learn more

10-Day Weather Forecast

Advertisements
Track Severe Weather on mobile